Time;durP1;ratioP1;P1;durP2;ratioP2;P2;SDS_P1;SDS_P2;PMS_P1;PMS_P2;Temp;Humidity;BMP_temperature;BMP_pressure;BME280_temperature;BME280_humidity;BME280_pressure;Samples;Min_cycle;Max_cycle;Signal;HPM_P1;HPM_P2
2023/12/17 00:00:50;;;;;;;0.50;0.10;;;7.20;99.90;;;;;;5066594;28;20470;-77
2023/12/17 00:03:18;;;;;;;0.50;0.10;;;7.30;99.90;;;;;;5069119;28;20426;-78
2023/12/17 00:05:48;;;;;;;0.50;0.10;;;7.20;99.90;;;;;;5064832;28;20452;-80
2023/12/17 00:08:19;;;;;;;1.80;1.70;;;7.30;99.90;;;;;;5065810;28;20480;-79
2023/12/17 00:10:49;;;;;;;0.50;0.10;;;7.20;99.90;;;;;;5066065;28;20461;-79
2023/12/17 00:13:18;;;;;;;0.60;0.43;;;7.20;99.90;;;;;;5067238;28;20508;-77
2023/12/17 00:15:46;;;;;;;0.50;0.10;;;;;;;;;;5057861;28;20474;-81
2023/12/17 00:18:15;;;;;;;0.50;0.17;;;7.10;99.90;;;;;;5058326;28;20916;-80
2023/12/17 00:20:44;;;;;;;1.03;0.63;;;7.10;99.90;;;;;;5068092;28;20449;-79
2023/12/17 00:23:12;;;;;;;0.50;0.10;;;7.10;99.90;;;;;;5070029;28;20434;-81
2023/12/17 00:25:40;;;;;;;0.50;0.10;;;7.10;99.90;;;;;;5063946;28;20963;-80
2023/12/17 00:28:08;;;;;;;0.50;0.10;;;;;;;;;;5071064;28;20467;-81
2023/12/17 00:30:36;;;;;;;0.50;0.10;;;6.90;99.90;;;;;;5073691;28;20459;-79
2023/12/17 00:33:04;;;;;;;1.20;1.20;;;6.90;99.90;;;;;;5068728;28;20486;-80
2023/12/17 00:35:34;;;;;;;0.50;0.20;;;6.90;99.90;;;;;;5063027;28;20464;-79
2023/12/17 00:38:02;;;;;;;0.50;0.10;;;7.00;99.90;;;;;;5064387;28;20466;-80
2023/12/17 00:40:30;;;;;;;2.60;2.50;;;7.00;99.90;;;;;;5065528;28;20493;-80
2023/12/17 00:42:58;;;;;;;0.50;0.10;;;6.90;99.90;;;;;;5064567;28;20454;-78
2023/12/17 00:45:26;;;;;;;0.50;0.10;;;6.90;99.90;;;;;;5066120;28;20447;-79
2023/12/17 00:47:55;;;;;;;0.50;0.10;;;7.00;99.90;;;;;;5066091;28;20486;-79
2023/12/17 00:50:23;;;;;;;0.50;0.10;;;6.90;99.90;;;;;;5067949;28;20470;-80
2023/12/17 00:52:52;;;;;;;0.50;0.20;;;6.80;99.90;;;;;;5065228;28;20477;-80
2023/12/17 00:55:20;;;;;;;0.50;0.10;;;6.90;99.90;;;;;;5064578;28;20476;-79
2023/12/17 00:57:48;;;;;;;0.97;0.97;;;6.90;99.90;;;;;;5063780;28;20498;-79
2023/12/17 01:00:17;;;;;;;0.50;0.10;;;6.90;99.90;;;;;;5055635;28;20449;-80
2023/12/17 01:02:45;;;;;;;0.50;0.10;;;;;;;;;;5066518;28;20517;-79
2023/12/17 01:05:14;;;;;;;0.50;0.10;;;6.90;99.90;;;;;;5069882;28;20846;-80
2023/12/17 01:07:42;;;;;;;0.50;0.10;;;6.90;99.90;;;;;;5067619;28;20474;-79
2023/12/17 01:10:11;;;;;;;1.50;1.40;;;6.70;99.90;;;;;;5071403;28;20465;-79
2023/12/17 01:12:40;;;;;;;0.50;0.10;;;6.60;99.90;;;;;;5069275;28;20505;-81
2023/12/17 01:15:10;;;;;;;0.50;0.10;;;6.60;99.90;;;;;;5073547;28;20457;-79
2023/12/17 01:17:38;;;;;;;0.50;0.10;;;6.60;99.90;;;;;;5069235;28;20566;-78
2023/12/17 01:20:08;;;;;;;0.50;0.10;;;6.70;99.90;;;;;;5069058;28;20447;-80
2023/12/17 01:22:36;;;;;;;0.50;0.10;;;6.70;99.90;;;;;;5064871;28;20488;-79
2023/12/17 01:25:05;;;;;;;0.50;0.10;;;6.70;99.90;;;;;;5065672;28;20465;-79
2023/12/17 01:27:35;;;;;;;0.50;0.10;;;6.60;99.90;;;;;;5059869;28;20470;-80
2023/12/17 01:30:03;;;;;;;0.50;0.20;;;6.60;99.90;;;;;;5074130;28;20438;-79
2023/12/17 01:32:31;;;;;;;0.50;0.20;;;6.70;99.90;;;;;;5075563;28;20478;-80
2023/12/17 01:34:59;;;;;;;0.50;0.10;;;;;;;;;;5067036;28;20473;-80
2023/12/17 01:37:28;;;;;;;0.50;0.10;;;6.70;99.90;;;;;;5085903;28;20484;-79
2023/12/17 01:39:56;;;;;;;0.50;0.10;;;6.60;99.90;;;;;;5089812;28;20513;-78
2023/12/17 01:42:24;;;;;;;0.50;0.10;;;6.80;99.90;;;;;;5094634;28;20954;-80
2023/12/17 01:44:53;;;;;;;0.50;0.10;;;6.70;99.90;;;;;;5092748;28;20454;-80
2023/12/17 01:47:22;;;;;;;0.50;0.10;;;6.70;99.90;;;;;;5092109;28;20470;-79
2023/12/17 01:49:50;;;;;;;0.50;0.20;;;6.80;99.90;;;;;;5096302;28;20502;-79
2023/12/17 01:52:18;;;;;;;0.60;0.40;;;6.70;99.90;;;;;;5094879;28;20472;-80
2023/12/17 01:54:47;;;;;;;0.50;0.10;;;6.60;99.90;;;;;;5087045;28;20511;-79
2023/12/17 01:57:15;;;;;;;0.50;0.10;;;6.60;99.90;;;;;;5090852;28;20465;-80
2023/12/17 01:59:46;;;;;;;0.50;0.10;;;6.60;99.90;;;;;;5087691;28;20469;-78
2023/12/17 02:02:16;;;;;;;0.50;0.10;;;6.60;99.90;;;;;;5093019;28;20470;-80
2023/12/17 02:04:45;;;;;;;0.50;0.10;;;6.70;99.90;;;;;;5091127;28;20438;-78
2023/12/17 02:07:12;;;;;;;0.50;0.10;;;6.60;99.90;;;;;;5080496;28;20478;-78
2023/12/17 02:09:41;;;;;;;0.50;0.10;;;;;;;;;;5077649;28;20455;-78
2023/12/17 02:12:09;;;;;;;0.50;0.20;;;6.60;99.90;;;;;;5083211;28;20441;-80
2023/12/17 02:14:37;;;;;;;0.50;0.10;;;6.80;99.90;;;;;;5093461;28;20487;-79
2023/12/17 02:17:05;;;;;;;0.50;0.10;;;6.80;99.90;;;;;;5078614;28;21052;-80
2023/12/17 02:19:34;;;;;;;0.50;0.10;;;6.80;99.90;;;;;;5072167;28;20484;-80
2023/12/17 02:22:02;;;;;;;0.50;0.10;;;6.70;99.90;;;;;;5062350;28;20501;-80
2023/12/17 02:24:33;;;;;;;0.50;0.10;;;6.70;99.90;;;;;;5061799;28;20449;-80
2023/12/17 02:27:00;;;;;;;0.50;0.10;;;6.70;99.90;;;;;;5074207;28;20544;-79
2023/12/17 02:29:28;;;;;;;0.50;0.10;;;6.70;99.90;;;;;;5093552;28;20449;-80
2023/12/17 02:31:56;;;;;;;0.50;0.30;;;6.70;99.90;;;;;;5087268;28;20556;-79
2023/12/17 02:34:25;;;;;;;0.60;0.50;;;6.80;99.90;;;;;;5079894;28;20520;-79
2023/12/17 02:36:53;;;;;;;0.50;0.10;;;6.70;99.90;;;;;;5072421;28;20976;-79
2023/12/17 02:39:21;;;;;;;0.50;0.10;;;6.80;99.90;;;;;;5072089;28;20438;-79
2023/12/17 02:41:51;;;;;;;0.87;0.83;;;6.70;99.90;;;;;;5081283;28;20498;-79
2023/12/17 02:44:19;;;;;;;0.83;0.50;;;6.70;99.90;;;;;;5094084;28;20433;-80
2023/12/17 02:46:47;;;;;;;0.97;0.40;;;6.70;99.90;;;;;;5076309;28;20473;-77
2023/12/17 02:49:14;;;;;;;0.50;0.10;;;6.70;99.90;;;;;;5082558;28;20967;-79
2023/12/17 02:51:42;;;;;;;0.50;0.20;;;6.60;99.90;;;;;;5070560;28;20964;-78
2023/12/17 02:54:11;;;;;;;0.50;0.10;;;6.60;99.90;;;;;;5068648;28;20601;-80
2023/12/17 02:56:39;;;;;;;0.50;0.10;;;6.50;99.90;;;;;;5058193;28;20481;-79
2023/12/17 02:59:10;;;;;;;1.70;0.77;;;6.50;99.90;;;;;;5055102;28;20492;-79
2023/12/17 03:01:40;;;;;;;0.60;0.30;;;6.40;99.90;;;;;;5056663;28;20450;-80
2023/12/17 03:04:08;;;;;;;1.17;0.53;;;;;;;;;;5054408;28;20450;-79
2023/12/17 03:06:37;;;;;;;2.50;1.20;;;6.20;99.90;;;;;;5056496;28;20969;-78
2023/12/17 03:09:05;;;;;;;0.90;0.83;;;6.20;99.90;;;;;;5063546;28;20488;-78
2023/12/17 03:11:33;;;;;;;0.60;0.40;;;6.20;99.90;;;;;;5061178;28;20632;-78
2023/12/17 03:14:01;;;;;;;1.93;1.73;;;6.20;99.90;;;;;;5054426;28;20653;-79
2023/12/17 03:16:31;;;;;;;0.50;0.20;;;6.20;99.90;;;;;;5060004;28;20473;-79
2023/12/17 03:18:59;;;;;;;0.50;0.10;;;;;;;;;;5070311;28;20494;-78
2023/12/17 03:21:27;;;;;;;0.50;0.10;;;6.10;99.90;;;;;;5057171;28;20446;-78
2023/12/17 03:23:55;;;;;;;0.50;0.10;;;6.20;99.90;;;;;;5053582;28;20434;-78
2023/12/17 03:26:23;;;;;;;0.50;0.20;;;;;;;;;;5045905;28;20458;-79
2023/12/17 03:28:51;;;;;;;0.50;0.20;;;6.30;99.90;;;;;;5054109;28;20458;-78
2023/12/17 03:31:19;;;;;;;0.50;0.10;;;6.40;99.90;;;;;;5053673;28;20443;-78
2023/12/17 03:33:48;;;;;;;0.50;0.10;;;6.50;99.90;;;;;;5060203;28;20478;-78
2023/12/17 03:36:17;;;;;;;1.67;0.57;;;6.50;99.90;;;;;;5054356;28;20535;-78
2023/12/17 03:38:47;;;;;;;0.50;0.10;;;6.40;99.90;;;;;;5054604;28;20462;-80
2023/12/17 03:41:21;;;;;;;0.50;0.10;;;6.50;99.90;;;;;;5053187;28;20456;-80
2023/12/17 03:43:51;;;;;;;0.50;0.10;;;6.50;99.90;;;;;;5061182;28;20446;-80
2023/12/17 03:46:20;;;;;;;0.50;0.10;;;6.40;99.90;;;;;;5061377;28;20861;-79
2023/12/17 03:48:48;;;;;;;0.50;0.10;;;6.50;99.90;;;;;;5066811;28;20480;-80
2023/12/17 03:51:17;;;;;;;0.67;0.40;;;6.50;99.90;;;;;;5084017;28;20446;-79
2023/12/17 03:53:45;;;;;;;0.50;0.20;;;6.50;99.90;;;;;;5073863;28;20475;-80
2023/12/17 03:56:15;;;;;;;0.50;0.10;;;6.50;99.90;;;;;;5068056;28;21063;-79
2023/12/17 03:58:43;;;;;;;0.60;0.33;;;6.60;99.90;;;;;;5068488;28;20455;-80
2023/12/17 04:01:11;;;;;;;0.50;0.10;;;6.60;99.90;;;;;;5067256;28;20492;-79
2023/12/17 04:03:40;;;;;;;0.50;0.10;;;;;;;;;;5062785;28;20448;-79
2023/12/17 04:06:10;;;;;;;0.50;0.10;;;6.70;99.90;;;;;;5070038;28;20481;-79
2023/12/17 04:08:38;;;;;;;1.73;0.43;;;6.70;99.90;;;;;;5068912;28;20438;-80
2023/12/17 04:11:06;;;;;;;0.70;0.70;;;;;;;;;;5062473;28;20481;-79
2023/12/17 04:13:34;;;;;;;0.50;0.10;;;;;;;;;;5078886;28;20801;-79
2023/12/17 04:16:02;;;;;;;0.50;0.10;;;6.60;99.90;;;;;;5060661;28;20521;-79
2023/12/17 04:18:31;;;;;;;0.50;0.10;;;;;;;;;;5073480;28;20517;-79
2023/12/17 04:20:59;;;;;;;1.43;1.33;;;6.60;99.90;;;;;;5068800;28;20871;-79
2023/12/17 04:23:28;;;;;;;0.50;0.20;;;6.60;99.90;;;;;;5055805;28;20473;-78
2023/12/17 04:25:57;;;;;;;0.50;0.10;;;6.60;99.90;;;;;;5079703;28;20441;-79
2023/12/17 04:28:25;;;;;;;0.50;0.10;;;6.70;99.90;;;;;;5063526;28;20522;-79
2023/12/17 04:30:53;;;;;;;0.50;0.10;;;6.70;99.90;;;;;;5079011;28;20522;-80
2023/12/17 04:33:20;;;;;;;0.50;0.10;;;6.70;99.90;;;;;;5067143;28;20438;-79
2023/12/17 04:35:49;;;;;;;2.83;2.73;;;6.70;99.90;;;;;;5065530;28;20896;-80
2023/12/17 04:38:17;;;;;;;0.50;0.10;;;6.70;99.90;;;;;;5055232;28;20535;-78
2023/12/17 04:40:46;;;;;;;1.37;1.13;;;6.70;99.90;;;;;;5047088;28;20560;-79
2023/12/17 04:43:14;;;;;;;0.50;0.10;;;6.70;99.90;;;;;;5054671;28;20447;-81
2023/12/17 04:45:42;;;;;;;0.50;0.30;;;6.60;99.90;;;;;;5061732;28;20517;-80
2023/12/17 04:48:10;;;;;;;0.50;0.10;;;6.60;99.90;;;;;;5068922;28;20469;-79
2023/12/17 04:50:38;;;;;;;0.50;0.20;;;6.50;99.90;;;;;;5070229;28;20449;-79
2023/12/17 04:53:06;;;;;;;0.50;0.30;;;;;;;;;;5069406;28;20446;-78
2023/12/17 04:55:34;;;;;;;0.50;0.10;;;6.50;99.90;;;;;;5072683;28;20564;-78
2023/12/17 04:58:04;;;;;;;0.50;0.10;;;;;;;;;;5065948;28;20493;-80
2023/12/17 05:00:32;;;;;;;0.50;0.10;;;6.50;99.90;;;;;;5065584;28;20532;-79
2023/12/17 05:03:00;;;;;;;0.50;0.10;;;6.50;99.90;;;;;;5080186;28;20777;-79
2023/12/17 05:05:28;;;;;;;0.63;0.57;;;;;;;;;;5065965;28;20524;-80
2023/12/17 05:07:56;;;;;;;0.50;0.10;;;;;;;;;;5080158;28;20462;-79
2023/12/17 05:10:24;;;;;;;0.50;0.10;;;6.60;99.90;;;;;;5076978;28;20498;-78
2023/12/17 05:12:53;;;;;;;0.50;0.10;;;6.50;99.90;;;;;;5064140;28;20551;-79
2023/12/17 05:15:23;;;;;;;1.80;1.70;;;6.60;99.90;;;;;;5064506;28;20523;-80
2023/12/17 05:17:51;;;;;;;0.70;0.70;;;;;;;;;;5074674;28;20515;-80
2023/12/17 05:20:19;;;;;;;1.30;0.97;;;6.70;99.90;;;;;;5058021;28;20537;-78
2023/12/17 05:22:48;;;;;;;1.77;1.43;;;;;;;;;;5056554;28;20476;-79
2023/12/17 05:25:16;;;;;;;2.40;2.30;;;6.70;99.90;;;;;;5061064;28;20502;-80
2023/12/17 05:27:44;;;;;;;0.50;0.10;;;;;;;;;;5073874;28;20520;-80
2023/12/17 05:30:13;;;;;;;0.60;0.40;;;6.70;99.90;;;;;;5055852;28;20479;-79
2023/12/17 05:32:42;;;;;;;0.60;0.40;;;6.60;99.90;;;;;;5078064;28;20528;-78
2023/12/17 05:35:11;;;;;;;0.50;0.20;;;6.60;99.90;;;;;;5062076;28;20481;-78
2023/12/17 05:37:39;;;;;;;0.90;0.60;;;6.40;99.90;;;;;;5068340;28;20523;-80
2023/12/17 05:40:08;;;;;;;0.50;0.10;;;6.30;99.90;;;;;;5059485;28;20838;-80
2023/12/17 05:42:37;;;;;;;0.50;0.10;;;;;;;;;;5056370;28;20490;-80
2023/12/17 05:45:06;;;;;;;0.70;0.70;;;6.30;99.90;;;;;;5065242;28;21096;-78
2023/12/17 05:47:34;;;;;;;0.50;0.10;;;6.30;99.90;;;;;;5058502;28;20461;-80
2023/12/17 05:50:04;;;;;;;0.83;0.60;;;6.30;99.90;;;;;;5066890;28;20517;-77
2023/12/17 05:52:33;;;;;;;1.13;1.03;;;6.20;99.90;;;;;;5051243;28;20956;-79
2023/12/17 05:55:01;;;;;;;0.50;0.10;;;;;;;;;;5060279;28;20544;-80
2023/12/17 05:57:29;;;;;;;0.50;0.10;;;6.20;99.90;;;;;;5061777;28;20458;-79
2023/12/17 05:59:57;;;;;;;0.50;0.10;;;6.30;99.90;;;;;;5060201;28;20442;-79
2023/12/17 06:02:25;;;;;;;0.50;0.10;;;6.30;99.90;;;;;;5062484;28;20533;-79
2023/12/17 06:04:53;;;;;;;0.70;0.60;;;6.30;99.90;;;;;;5073940;28;20445;-79
2023/12/17 06:07:22;;;;;;;0.50;0.10;;;;;;;;;;5065274;28;20469;-78
2023/12/17 06:09:50;;;;;;;0.50;0.10;;;6.30;99.90;;;;;;5063888;28;20438;-79
2023/12/17 06:12:18;;;;;;;0.50;0.20;;;6.30;99.90;;;;;;5058918;28;20461;-79
2023/12/17 06:14:46;;;;;;;0.50;0.10;;;6.40;99.90;;;;;;5072971;28;20442;-80
2023/12/17 06:17:14;;;;;;;0.50;0.10;;;6.30;99.90;;;;;;5064714;28;20462;-78
2023/12/17 06:19:43;;;;;;;1.37;0.87;;;6.20;99.90;;;;;;5070892;28;20458;-79
2023/12/17 06:22:15;;;;;;;1.83;0.67;;;6.10;99.90;;;;;;5055106;28;20462;-78
2023/12/17 06:24:44;;;;;;;0.50;0.10;;;6.10;99.90;;;;;;5061722;28;20445;-78
2023/12/17 06:27:16;;;;;;;2.67;2.57;;;;;;;;;;5059785;28;20482;-78
2023/12/17 06:29:44;;;;;;;0.50;0.10;;;6.20;99.90;;;;;;5061709;28;20444;-79
2023/12/17 06:32:12;;;;;;;1.27;0.87;;;6.20;99.90;;;;;;5059918;28;20446;-78
2023/12/17 06:34:42;;;;;;;0.50;0.10;;;6.20;99.90;;;;;;5060708;28;20441;-78
2023/12/17 06:37:10;;;;;;;4.47;4.20;;;6.20;99.90;;;;;;5060437;28;20485;-80
2023/12/17 06:39:41;;;;;;;0.50;0.10;;;;;;;;;;5057709;28;20450;-80
2023/12/17 06:42:11;;;;;;;0.60;0.40;;;6.30;99.90;;;;;;5049629;28;20448;-78
2023/12/17 06:44:39;;;;;;;0.50;0.10;;;6.30;99.90;;;;;;5056853;28;20525;-77
2023/12/17 06:47:07;;;;;;;0.63;0.63;;;6.20;99.90;;;;;;5055965;28;20477;-81
2023/12/17 06:49:49;;;;;;;0.50;0.20;;;6.10;99.90;;;;;;5068138;28;20473;-80
2023/12/17 06:52:17;;;;;;;0.50;0.20;;;6.10;99.90;;;;;;5061206;28;20526;-79
2023/12/17 06:54:45;;;;;;;0.60;0.40;;;6.10;99.90;;;;;;5049856;28;20474;-80
2023/12/17 06:57:14;;;;;;;1.37;1.27;;;6.00;99.90;;;;;;5057656;28;20546;-78
2023/12/17 06:59:42;;;;;;;1.10;0.87;;;6.00;99.90;;;;;;5055969;28;20808;-80
2023/12/17 07:02:10;;;;;;;0.50;0.10;;;6.00;99.90;;;;;;5062833;28;20541;-80
2023/12/17 07:04:38;;;;;;;1.57;1.47;;;6.00;99.90;;;;;;5052762;28;20448;-79
2023/12/17 07:07:06;;;;;;;2.43;2.33;;;6.10;99.90;;;;;;5070251;28;20482;-79
2023/12/17 07:09:33;;;;;;;0.50;0.10;;;6.10;99.90;;;;;;5081921;28;20441;-79
2023/12/17 07:12:01;;;;;;;0.70;0.60;;;6.10;99.90;;;;;;5068839;28;20521;-79
2023/12/17 07:14:30;;;;;;;1.03;0.87;;;6.10;99.90;;;;;;5076075;28;20473;-79
2023/12/17 07:16:58;;;;;;;0.50;0.10;;;6.10;99.90;;;;;;5068347;28;20482;-80
2023/12/17 07:19:27;;;;;;;2.10;0.70;;;;;;;;;;5077120;28;20438;-78
2023/12/17 07:21:55;;;;;;;0.50;0.10;;;6.10;99.90;;;;;;5061869;28;20446;-79
2023/12/17 07:24:23;;;;;;;1.43;1.17;;;6.10;99.90;;;;;;5067401;28;20444;-79
2023/12/17 07:26:51;;;;;;;1.83;0.97;;;6.00;99.90;;;;;;5062473;28;20537;-79
2023/12/17 07:29:19;;;;;;;0.60;0.57;;;;;;;;;;5079221;28;20467;-81
2023/12/17 07:31:49;;;;;;;2.43;2.33;;;6.00;99.90;;;;;;5064619;28;20856;-79
2023/12/17 07:34:17;;;;;;;1.33;0.73;;;6.00;99.90;;;;;;5058465;28;20470;-78
2023/12/17 07:36:49;;;;;;;1.00;0.47;;;6.00;99.90;;;;;;5060964;28;20490;-79
2023/12/17 07:39:18;;;;;;;9.83;2.97;;;6.00;99.90;;;;;;5064549;28;20456;-80
2023/12/17 07:41:46;;;;;;;0.77;0.50;;;;;;;;;;5058835;28;20446;-79
2023/12/17 07:44:15;;;;;;;0.70;0.43;;;6.00;99.90;;;;;;5055002;28;20505;-78
2023/12/17 07:46:43;;;;;;;0.50;0.10;;;6.00;99.90;;;;;;5055995;28;20839;-78
2023/12/17 07:49:12;;;;;;;2.67;1.20;;;6.00;99.90;;;;;;5053831;28;20489;-78
2023/12/17 07:51:40;;;;;;;2.93;0.67;;;6.00;99.90;;;;;;5041334;28;20477;-80
2023/12/17 07:54:08;;;;;;;0.70;0.47;;;6.00;99.90;;;;;;5060593;28;20513;-80
2023/12/17 07:56:36;;;;;;;0.50;0.10;;;6.00;99.90;;;;;;5063365;28;20513;-79
2023/12/17 07:59:04;;;;;;;0.50;0.10;;;6.00;99.90;;;;;;5049037;28;20456;-78
2023/12/17 08:01:33;;;;;;;0.50;0.30;;;6.00;99.90;;;;;;5054370;28;20500;-81
2023/12/17 08:04:01;;;;;;;1.90;0.73;;;6.10;99.90;;;;;;5054342;28;20721;-80
2023/12/17 08:06:31;;;;;;;0.50;0.10;;;6.10;99.90;;;;;;5054447;28;20470;-81
2023/12/17 08:09:03;;;;;;;0.53;0.27;;;6.20;99.90;;;;;;5049485;28;20488;-79
2023/12/17 08:11:31;;;;;;;1.93;1.80;;;6.20;99.90;;;;;;5054220;28;20453;-79
2023/12/17 08:13:59;;;;;;;0.50;0.20;;;6.20;99.90;;;;;;5052707;28;21140;-79
2023/12/17 08:16:27;;;;;;;3.63;2.83;;;6.20;99.90;;;;;;5054780;28;20490;-80
2023/12/17 08:18:55;;;;;;;0.50;0.10;;;6.20;99.90;;;;;;5056300;28;20457;-78
2023/12/17 08:21:23;;;;;;;0.50;0.10;;;6.30;99.90;;;;;;5057408;28;20455;-80
2023/12/17 08:23:53;;;;;;;0.50;0.10;;;6.30;99.90;;;;;;5061202;28;20990;-80
2023/12/17 08:26:21;;;;;;;1.83;0.33;;;6.30;99.90;;;;;;5050794;28;20471;-81
2023/12/17 08:28:48;;;;;;;0.60;0.60;;;6.30;99.90;;;;;;5061691;28;20498;-80
2023/12/17 08:31:17;;;;;;;0.50;0.10;;;6.30;99.90;;;;;;5045387;28;20541;-78
2023/12/17 08:33:50;;;;;;;0.50;0.10;;;6.30;99.90;;;;;;5043883;28;20439;-78
2023/12/17 08:36:19;;;;;;;1.27;1.17;;;6.30;99.90;;;;;;5051656;28;20482;-79
2023/12/17 08:38:48;;;;;;;0.60;0.47;;;;;;;;;;5039065;28;20446;-79
2023/12/17 08:41:17;;;;;;;0.50;0.10;;;6.30;99.90;;;;;;5056740;28;20961;-80
2023/12/17 08:43:46;;;;;;;0.50;0.23;;;6.40;99.90;;;;;;5058969;28;20442;-80
2023/12/17 08:46:14;;;;;;;1.80;1.60;;;6.40;99.90;;;;;;5055478;28;20458;-79
2023/12/17 08:48:42;;;;;;;0.50;0.20;;;6.40;99.90;;;;;;5038930;28;20470;-81
2023/12/17 08:51:11;;;;;;;0.50;0.10;;;6.40;99.90;;;;;;5044383;28;20470;-78
2023/12/17 08:53:41;;;;;;;0.87;0.87;;;;;;;;;;5045271;28;20512;-80
2023/12/17 08:56:10;;;;;;;1.00;0.90;;;6.40;99.90;;;;;;5063849;28;20551;-81
2023/12/17 08:58:39;;;;;;;0.50;0.10;;;6.50;99.90;;;;;;5062136;28;20442;-79
2023/12/17 09:01:07;;;;;;;0.50;0.10;;;6.50;99.90;;;;;;5052666;28;20460;-81
2023/12/17 09:03:35;;;;;;;0.50;0.10;;;6.50;99.90;;;;;;5062309;28;20867;-79
2023/12/17 09:06:03;;;;;;;0.60;0.43;;;6.60;99.90;;;;;;5074121;28;20501;-81
2023/12/17 09:08:31;;;;;;;0.50;0.20;;;;;;;;;;5062200;28;20472;-77
2023/12/17 09:11:00;;;;;;;0.50;0.10;;;;;;;;;;5062312;28;20479;-81
2023/12/17 09:13:28;;;;;;;0.50;0.10;;;6.50;99.90;;;;;;5060088;28;20485;-81
2023/12/17 09:15:57;;;;;;;0.50;0.10;;;6.60;99.90;;;;;;5061164;28;20462;-79
2023/12/17 09:18:25;;;;;;;0.50;0.20;;;6.60;99.90;;;;;;5066347;28;20473;-80
2023/12/17 09:20:53;;;;;;;0.50;0.10;;;6.50;99.90;;;;;;5074894;28;20426;-82
2023/12/17 09:23:21;;;;;;;0.50;0.10;;;6.60;99.90;;;;;;5077276;28;20450;-81
2023/12/17 09:25:49;;;;;;;0.70;0.40;;;6.50;99.90;;;;;;5078527;28;20469;-80
2023/12/17 09:28:18;;;;;;;0.50;0.10;;;;;;;;;;5078556;28;20435;-81
2023/12/17 09:30:46;;;;;;;0.50;0.10;;;6.50;99.90;;;;;;5078941;28;20483;-81
2023/12/17 09:33:16;;;;;;;0.50;0.20;;;6.50;99.90;;;;;;5077758;28;20449;-81
2023/12/17 09:35:45;;;;;;;0.50;0.10;;;;;;;;;;5069564;28;20762;-80
2023/12/17 09:38:14;;;;;;;2.30;1.50;;;6.50;99.90;;;;;;5072465;28;20980;-79
2023/12/17 09:40:43;;;;;;;0.73;0.67;;;6.50;99.90;;;;;;5068567;28;20427;-79
2023/12/17 09:43:11;;;;;;;0.50;0.10;;;6.60;99.90;;;;;;5077428;28;20426;-81
2023/12/17 09:45:42;;;;;;;0.50;0.10;;;6.50;99.90;;;;;;5067220;28;20461;-79
2023/12/17 09:48:10;;;;;;;0.50;0.10;;;6.60;99.90;;;;;;5065526;28;20496;-80
2023/12/17 09:50:40;;;;;;;0.60;0.30;;;6.60;99.90;;;;;;5062863;28;20446;-79
2023/12/17 09:53:08;;;;;;;0.60;0.27;;;;;;;;;;5060372;28;20459;-79
2023/12/17 09:55:36;;;;;;;0.50;0.20;;;6.60;99.90;;;;;;5061698;28;20454;-77
2023/12/17 09:58:05;;;;;;;0.50;0.10;;;;;;;;;;5062875;28;20581;-78
2023/12/17 10:00:33;;;;;;;0.50;0.10;;;;;;;;;;5056696;28;20464;-78
2023/12/17 10:03:03;;;;;;;0.50;0.10;;;6.70;99.90;;;;;;5053865;28;20446;-78
2023/12/17 10:05:32;;;;;;;0.50;0.10;;;6.70;99.90;;;;;;5054067;28;20461;-77
2023/12/17 10:08:02;;;;;;;0.50;0.40;;;;;;;;;;5055147;28;20466;-79
2023/12/17 10:10:31;;;;;;;0.50;0.10;;;6.80;99.90;;;;;;5054110;28;20455;-78
2023/12/17 10:12:58;;;;;;;0.50;0.10;;;6.80;99.90;;;;;;5051671;28;21024;-76
2023/12/17 10:15:27;;;;;;;0.50;0.10;;;6.80;99.90;;;;;;5058148;28;20519;-79
2023/12/17 10:17:55;;;;;;;0.50;0.10;;;6.90;99.90;;;;;;5051636;28;20536;-78
2023/12/17 10:20:23;;;;;;;0.50;0.10;;;6.90;99.90;;;;;;5049787;28;20469;-78
2023/12/17 10:22:59;;;;;;;0.50;0.10;;;6.90;99.90;;;;;;5056810;28;20789;-78
2023/12/17 10:25:28;;;;;;;0.50;0.20;;;7.00;99.90;;;;;;5054551;28;20871;-80
2023/12/17 10:27:58;;;;;;;0.50;0.10;;;7.10;99.90;;;;;;5055986;28;20455;-78
2023/12/17 10:30:28;;;;;;;0.50;0.10;;;;;;;;;;5049442;28;20496;-78
2023/12/17 10:32:58;;;;;;;0.50;0.10;;;7.10;99.90;;;;;;5049937;28;20462;-77
2023/12/17 10:35:27;;;;;;;0.50;0.10;;;;;;;;;;5055625;28;20450;-79
2023/12/17 10:37:59;;;;;;;1.80;1.70;;;7.10;99.90;;;;;;5057334;28;20485;-78
2023/12/17 10:40:29;;;;;;;0.50;0.10;;;;;;;;;;5056718;28;20462;-78
2023/12/17 10:42:59;;;;;;;0.50;0.10;;;10.60;99.90;;;;;;5054209;28;20489;-79
2023/12/17 10:45:29;;;;;;;0.77;0.63;;;7.10;99.90;;;;;;5056951;28;20494;-78
2023/12/17 10:47:59;;;;;;;3.80;2.37;;;7.00;99.90;;;;;;5059673;28;20520;-81
2023/12/17 10:50:28;;;;;;;0.50;0.10;;;6.90;99.90;;;;;;5063127;28;20434;-81
2023/12/17 10:52:56;;;;;;;0.50;0.10;;;7.00;99.90;;;;;;5054937;28;20968;-80
2023/12/17 10:55:24;;;;;;;0.80;0.53;;;7.10;99.90;;;;;;5054846;28;20475;-81
2023/12/17 10:57:57;;;;;;;0.50;0.10;;;7.10;99.90;;;;;;5061197;28;20854;-81
2023/12/17 11:00:28;;;;;;;0.50;0.10;;;7.10;99.90;;;;;;5063424;28;20478;-81
2023/12/17 11:03:00;;;;;;;0.50;0.10;;;7.10;99.90;;;;;;5063786;28;20446;-82
2023/12/17 11:05:28;;;;;;;1.37;1.27;;;7.10;99.90;;;;;;5054485;28;20481;-80
2023/12/17 11:07:56;;;;;;;0.50;0.10;;;7.10;99.90;;;;;;5055973;28;20467;-80
2023/12/17 11:10:24;;;;;;;0.50;0.10;;;7.10;99.90;;;;;;5065103;28;20442;-82
2023/12/17 11:12:54;;;;;;;6.43;2.83;;;7.00;99.90;;;;;;5066990;28;20481;-80
2023/12/17 11:15:23;;;;;;;1.93;0.50;;;6.90;99.90;;;;;;5070760;28;20454;-81
2023/12/17 11:17:53;;;;;;;0.50;0.20;;;10.50;99.90;;;;;;5066266;28;20478;-81
2023/12/17 11:20:22;;;;;;;0.60;0.20;;;6.90;99.90;;;;;;5069238;28;20491;-81
2023/12/17 11:22:51;;;;;;;0.50;0.20;;;6.90;99.90;;;;;;5063836;28;20458;-80
2023/12/17 11:25:30;;;;;;;11.53;6.53;;;6.80;99.90;;;;;;5065023;28;20442;-81
2023/12/17 11:28:00;;;;;;;0.53;0.33;;;6.60;99.90;;;;;;5061658;28;20454;-81
2023/12/17 11:30:29;;;;;;;0.50;0.10;;;6.60;99.90;;;;;;5065277;28;21109;-81
2023/12/17 11:32:58;;;;;;;0.50;0.10;;;6.70;99.90;;;;;;5064985;28;20796;-81
2023/12/17 11:35:28;;;;;;;0.50;0.20;;;6.80;99.90;;;;;;5060096;28;20451;-81
2023/12/17 11:37:56;;;;;;;0.50;0.30;;;6.90;99.90;;;;;;5062884;28;20543;-81
2023/12/17 11:40:26;;;;;;;0.50;0.20;;;6.70;99.90;;;;;;5064904;28;20485;-81
2023/12/17 11:42:59;;;;;;;2.53;1.87;;;6.60;99.90;;;;;;5065544;28;20446;-81
2023/12/17 11:45:36;;;;;;;0.50;0.40;;;6.70;99.90;;;;;;5072736;28;20442;-81
2023/12/17 11:48:09;;;;;;;0.50;0.23;;;6.60;99.90;;;;;;5071827;28;20480;-80
2023/12/17 11:50:45;;;;;;;1.63;1.20;;;6.60;99.90;;;;;;5068426;28;20473;-82
2023/12/17 11:53:14;;;;;;;0.50;0.20;;;6.70;99.90;;;;;;5070960;28;20468;-81
2023/12/17 11:55:44;;;;;;;0.50;0.10;;;6.60;99.90;;;;;;5066484;28;20448;-81
2023/12/17 11:58:15;;;;;;;0.50;0.10;;;6.70;99.90;;;;;;5069714;28;20481;-81
2023/12/17 12:00:59;;;;;;;1.60;1.50;;;6.80;99.90;;;;;;5062223;28;20492;-81
2023/12/17 12:03:31;;;;;;;0.50;0.10;;;6.80;99.90;;;;;;5061197;28;20465;-81
2023/12/17 12:06:03;;;;;;;3.03;2.93;;;6.80;99.90;;;;;;5057914;28;20470;-81
2023/12/17 12:08:35;;;;;;;0.50;0.20;;;6.90;99.90;;;;;;5052480;28;20531;-81
2023/12/17 12:11:04;;;;;;;0.50;0.10;;;6.90;99.90;;;;;;5054809;28;20498;-80
2023/12/17 12:13:38;;;;;;;1.63;1.33;;;7.00;99.90;;;;;;5057153;28;20446;-81
2023/12/17 12:16:08;;;;;;;0.50;0.10;;;6.90;99.90;;;;;;5055607;28;20450;-81
2023/12/17 12:18:36;;;;;;;2.93;1.80;;;6.90;99.90;;;;;;5062084;28;20486;-80
2023/12/17 12:21:14;;;;;;;0.60;0.50;;;6.70;99.90;;;;;;5069778;28;20558;-81
2023/12/17 12:23:49;;;;;;;0.50;0.10;;;6.70;99.90;;;;;;5069647;28;20450;-81
2023/12/17 12:26:18;;;;;;;0.50;0.20;;;6.70;99.90;;;;;;5066970;28;20503;-82
2023/12/17 12:28:55;;;;;;;0.50;0.20;;;9.70;99.90;;;;;;5071216;28;20477;-80
2023/12/17 12:31:23;;;;;;;0.50;0.10;;;6.80;99.90;;;;;;5070798;28;20456;-81
2023/12/17 12:33:55;;;;;;;0.87;0.70;;;6.80;99.90;;;;;;5064976;28;20431;-81
2023/12/17 12:36:24;;;;;;;0.50;0.10;;;6.90;99.90;;;;;;5068147;28;20485;-82
2023/12/17 12:39:02;;;;;;;14.57;2.67;;;6.80;99.90;;;;;;5053463;28;20549;-81
2023/12/17 12:41:30;;;;;;;2.30;1.07;;;6.70;99.90;;;;;;5065665;28;20422;-82
2023/12/17 12:44:00;;;;;;;1.03;0.63;;;6.70;99.90;;;;;;5067784;28;20442;-81
2023/12/17 12:46:28;;;;;;;0.60;0.40;;;6.70;99.90;;;;;;5064823;28;20492;-82
2023/12/17 12:48:57;;;;;;;0.50;0.30;;;6.60;99.90;;;;;;5058852;28;20439;-82
2023/12/17 12:51:26;;;;;;;0.50;0.10;;;6.70;99.90;;;;;;5062202;28;20489;-80
2023/12/17 12:53:57;;;;;;;0.80;0.50;;;6.70;99.90;;;;;;5061004;28;21210;-81
2023/12/17 12:56:25;;;;;;;0.50;0.10;;;6.70;99.90;;;;;;5065149;28;20996;-81
2023/12/17 12:58:53;;;;;;;0.63;0.47;;;6.70;99.90;;;;;;5066391;28;20474;-82
2023/12/17 13:01:23;;;;;;;0.50;0.20;;;6.70;99.90;;;;;;5059030;28;20469;-82
2023/12/17 13:03:51;;;;;;;0.50;0.20;;;6.80;99.90;;;;;;5073426;28;20433;-82
2023/12/17 13:06:19;;;;;;;0.50;0.10;;;9.40;99.90;;;;;;5073538;28;20534;-81
2023/12/17 13:08:47;;;;;;;0.50;0.10;;;6.80;99.90;;;;;;5072790;28;20449;-81
2023/12/17 13:11:15;;;;;;;0.50;0.10;;;6.80;99.90;;;;;;5071476;28;20474;-83
2023/12/17 13:13:43;;;;;;;0.50;0.10;;;6.80;99.90;;;;;;5068448;28;20893;-81
2023/12/17 13:16:11;;;;;;;1.10;1.10;;;6.80;99.90;;;;;;5066238;28;20458;-81